Time;durP1;ratioP1;P1;durP2;ratioP2;P2;SDS_P1;SDS_P2;PMS_P1;PMS_P2;Temp;Humidity;BMP_temperature;BMP_pressure;BME280_temperature;BME280_humidity;BME280_pressure;Samples;Min_cycle;Max_cycle;Signal;HPM_P1;HPM_P2
2022/05/12 00:00:16;;;;;;;;;;;;;;;21.80;nan;95620.56;2084023;28;1942;-63
2022/05/12 00:01:18;;;;;;;;;;;;;;;21.81;nan;95624.88;2081804;28;989;-63
2022/05/12 00:02:20;;;;;;;;;;;;;;;21.80;nan;95620.56;2081762;28;917;-63
2022/05/12 00:03:21;;;;;;;;;;;;;;;21.80;nan;95623.22;2080703;28;1745;-63
2022/05/12 00:04:23;;;;;;;;;;;;;;;21.80;nan;95621.38;2083659;28;1614;-63
2022/05/12 00:05:25;;;;;;;;;;;;;;;21.81;nan;95619.53;2082037;28;1686;-61
2022/05/12 00:06:26;;;;;;;;;;;;;;;21.80;nan;95612.53;2076929;28;1195;-63
2022/05/12 00:07:28;;;;;;;;;;;;;;;21.80;nan;95620.56;2081787;28;1100;-63
2022/05/12 00:08:31;;;;;;;;;;;;;;;21.81;nan;95612.31;2081914;28;921;-61
2022/05/12 00:09:33;;;;;;;;;;;;;;;21.81;nan;95619.53;2081748;28;1050;-63
2022/05/12 00:10:34;;;;;;;;;;;;;;;21.80;nan;95620.56;2080563;28;1583;-60
2022/05/12 00:11:36;;;;;;;;;;;;;;;21.76;nan;95616.63;2082521;28;1489;-60
2022/05/12 00:12:38;;;;;;;;;;;;;;;21.74;nan;95619.53;2080546;28;2057;-58
2022/05/12 00:13:39;;;;;;;;;;;;;;;21.73;nan;95622.38;2081773;28;1288;-60
2022/05/12 00:14:41;;;;;;;;;;;;;;;21.69;nan;95613.94;2083357;28;1698;-60
2022/05/12 00:15:42;;;;;;;;;;;;;;;21.71;nan;95624.44;2090111;28;1060;-60
2022/05/12 00:16:44;;;;;;;;;;;;;;;21.68;nan;95613.13;2085394;28;1333;-60
2022/05/12 00:17:46;;;;;;;;;;;;;;;21.70;nan;95617.44;2085346;28;1075;-61
2022/05/12 00:18:48;;;;;;;;;;;;;;;21.70;nan;95614.78;2089848;28;1969;-60
2022/05/12 00:19:49;;;;;;;;;;;;;;;21.68;nan;95615.81;2088916;28;1621;-61
2022/05/12 00:20:52;;;;;;;;;;;;;;;21.65;nan;95613.53;2083860;28;1606;-60
2022/05/12 00:21:54;;;;;;;;;;;;;;;21.67;nan;95616.81;2084345;28;1156;-60
2022/05/12 00:23:05;;;;;;;;;;;;;;;21.65;nan;95610.88;2088355;28;1513;-60
2022/05/12 00:24:07;;;;;;;;;;;;;;;21.67;nan;95619.50;2089961;28;1700;-60
2022/05/12 00:25:13;;;;;;;;;;;;;;;21.66;nan;95615.19;2083666;28;1430;-60
2022/05/12 00:26:15;;;;;;;;;;;;;;;21.66;nan;95611.69;2087535;28;1645;-61
2022/05/12 00:27:16;;;;;;;;;;;;;;;21.65;nan;95613.53;2091597;28;1095;-61
2022/05/12 00:28:19;;;;;;;;;;;;;;;21.66;nan;95614.38;2086844;28;1660;-61
2022/05/12 00:29:21;;;;;;;;;;;;;;;21.66;nan;95615.19;2079881;28;1154;-61
2022/05/12 00:30:22;;;;;;;;;;;;;;;21.65;nan;95613.53;2084155;28;1495;-62
2022/05/12 00:31:24;;;;;;;;;;;;;;;21.65;nan;95613.53;2084223;28;1544;-61
2022/05/12 00:32:26;;;;;;;;;;;;;;;21.65;nan;95613.53;2084017;28;1505;-66
2022/05/12 00:33:28;;;;;;;;;;;;;;;21.66;nan;95617.84;2084140;28;1081;-64
2022/05/12 00:34:29;;;;;;;;;;;;;;;21.66;nan;95606.34;2083237;28;1657;-65
2022/05/12 00:35:31;;;;;;;;;;;;;;;21.66;nan;95617.84;2083756;28;978;-66
2022/05/12 00:36:33;;;;;;;;;;;;;;;21.65;nan;95616.22;2084438;28;1528;-64
2022/05/12 00:37:35;;;;;;;;;;;;;;;21.65;nan;95610.03;2084314;28;1033;-64
2022/05/12 00:38:36;;;;;;;;;;;;;;;21.64;nan;95611.06;2084298;28;1116;-65
2022/05/12 00:39:38;;;;;;;;;;;;;;;21.64;nan;95617.22;2079739;28;1898;-61
2022/05/12 00:40:42;;;;;;;;;;;;;;;21.64;nan;95613.75;2082058;28;1549;-61
2022/05/12 00:41:43;;;;;;;;;;;;;;;21.64;nan;95613.75;2084561;28;1560;-62
2022/05/12 00:42:56;;;;;;;;;;;;;;;21.64;nan;95613.75;2085990;28;1485;-62
2022/05/12 00:44:02;;;;;;;;;;;;;;;21.64;nan;95613.75;2083947;28;1701;-62
2022/05/12 00:45:04;;;;;;;;;;;;;;;21.63;nan;95607.56;2083823;28;1663;-63
2022/05/12 00:46:07;;;;;;;;;;;;;;;21.65;nan;95610.88;2083972;28;1613;-66
2022/05/12 00:47:08;;;;;;;;;;;;;;;21.67;nan;95614.16;2084729;28;891;-65
2022/05/12 00:48:10;;;;;;;;;;;;;;;21.70;nan;95614.78;2081458;28;1554;-65
2022/05/12 00:49:15;;;;;;;;;;;;;;;21.70;nan;95617.44;2075691;28;1065;-66
2022/05/12 00:50:17;;;;;;;;;;;;;;;21.71;nan;95617.22;2076103;28;1028;-66
2022/05/12 00:51:26;;;;;;;;;;;;;;;21.71;nan;95611.06;2067838;28;1600;-64
2022/05/12 00:52:29;;;;;;;;;;;;;;;21.72;nan;95616.22;2080062;28;1545;-66
2022/05/12 00:53:33;;;;;;;;;;;;;;;21.73;nan;95614.38;2092267;28;1352;-65
2022/05/12 00:54:49;;;;;;;;;;;;;;;21.73;nan;95617.84;2093000;28;1103;-65
2022/05/12 00:55:51;;;;;;;;;;;;;;;21.73;nan;95617.84;2092526;28;962;-66
2022/05/12 00:56:53;;;;;;;;;;;;;;;21.75;nan;95615.00;2092017;28;1002;-66
2022/05/12 00:57:56;;;;;;;;;;;;;;;21.74;nan;95619.53;2092733;28;815;-65
2022/05/12 00:59:01;;;;;;;;;;;;;;;21.74;nan;95618.66;2092292;28;1995;-66
2022/05/12 01:00:05;;;;;;;;;;;;;;;21.74;nan;95624.03;2093028;28;1005;-66
2022/05/12 01:01:08;;;;;;;;;;;;;;;21.75;nan;95625.69;2084848;28;1383;-66
2022/05/12 01:02:14;;;;;;;;;;;;;;;21.74;nan;95630.22;2073153;28;1607;-62
2022/05/12 01:03:19;;;;;;;;;;;;;;;21.75;nan;95620.34;2072143;28;1538;-63
2022/05/12 01:04:22;;;;;;;;;;;;;;;21.76;nan;95628.16;2076936;28;1207;-65
2022/05/12 01:05:24;;;;;;;;;;;;;;;21.75;nan;95623.00;2084567;28;989;-63
2022/05/12 01:06:26;;;;;;;;;;;;;;;21.75;nan;95631.84;2083502;28;1481;-62
2022/05/12 01:07:28;;;;;;;;;;;;;;;21.73;nan;95631.22;2092981;28;989;-68
2022/05/12 01:08:30;;;;;;;;;;;;;;;21.71;nan;95629.78;2092437;28;1096;-68
2022/05/12 01:09:32;;;;;;;;;;;;;;;21.71;nan;95630.59;2091812;28;1099;-68
2022/05/12 01:10:34;;;;;;;;;;;;;;;21.72;nan;95626.09;2091963;28;1084;-68
2022/05/12 01:11:36;;;;;;;;;;;;;;;21.73;nan;95627.72;2085742;28;1689;-68
2022/05/12 01:12:40;;;;;;;;;;;;;;;21.73;nan;95633.91;2085851;28;1484;-68
2022/05/12 01:13:44;;;;;;;;;;;;;;;21.73;nan;95628.56;2087968;28;1001;-65
2022/05/12 01:14:45;;;;;;;;;;;;;;;21.73;nan;95635.75;2087674;28;940;-68
2022/05/12 01:15:54;;;;;;;;;;;;;;;21.74;nan;95634.72;2099321;28;1655;-67
2022/05/12 01:16:57;;;;;;;;;;;;;;;21.75;nan;95633.72;2099025;28;1143;-68
2022/05/12 01:18:02;;;;;;;;;;;;;;;21.75;nan;95625.69;2092612;28;1039;-68
2022/05/12 01:19:05;;;;;;;;;;;;;;;21.74;nan;95640.06;2075603;28;1922;-68
2022/05/12 01:20:07;;;;;;;;;;;;;;;21.73;nan;95627.72;2076189;28;1097;-68
2022/05/12 01:21:10;;;;;;;;;;;;;;;21.74;nan;95637.41;2076473;28;1096;-68
2022/05/12 01:22:27;;;;;;;;;;;;;;;21.74;nan;95637.41;2081812;28;1669;-68
2022/05/12 01:23:31;;;;;;;;;;;;;;;21.73;nan;95633.91;2086987;28;1503;-68
2022/05/12 01:24:34;;;;;;;;;;;;;;;21.74;nan;95634.72;2090806;28;1585;-66
2022/05/12 01:25:36;;;;;;;;;;;;;;;21.74;nan;95632.03;2077689;28;1716;-68
2022/05/12 01:26:38;;;;;;;;;;;;;;;21.74;nan;95637.41;2082540;28;1411;-66
2022/05/12 01:27:42;;;;;;;;;;;;;;;21.74;nan;95634.72;2088443;28;1717;-67
2022/05/12 01:28:43;;;;;;;;;;;;;;;21.74;nan;95632.03;2091994;28;1789;-66
2022/05/12 01:29:53;;;;;;;;;;;;;;;21.72;nan;95636.78;2092380;28;973;-64
2022/05/12 01:30:55;;;;;;;;;;;;;;;21.73;nan;95643.78;2090201;28;1440;-64
2022/05/12 01:31:56;;;;;;;;;;;;;;;21.74;nan;95645.41;2086137;28;1719;-68
2022/05/12 01:32:58;;;;;;;;;;;;;;;21.73;nan;95635.75;2087084;28;1507;-68
2022/05/12 01:34:00;;;;;;;;;;;;;;;21.73;nan;95638.44;2091495;28;1013;-65
2022/05/12 01:35:02;;;;;;;;;;;;;;;21.73;nan;95636.59;2091016;28;1290;-65
2022/05/12 01:36:04;;;;;;;;;;;;;;;21.74;nan;95635.56;2086126;28;1500;-63
2022/05/12 01:37:06;;;;;;;;;;;;;;;21.75;nan;95633.72;2086367;28;1238;-64
2022/05/12 01:38:07;;;;;;;;;;;;;;;21.75;nan;95633.72;2089038;28;1501;-65
2022/05/12 01:39:10;;;;;;;;;;;;;;;21.74;nan;95635.56;2090663;28;1164;-64
2022/05/12 01:40:13;;;;;;;;;;;;;;;21.74;nan;95629.38;2084755;28;1906;-65
2022/05/12 01:41:15;;;;;;;;;;;;;;;21.74;nan;95638.25;2082569;28;1013;-65
2022/05/12 01:42:16;;;;;;;;;;;;;;;21.74;nan;95634.72;2082614;28;1787;-65
2022/05/12 01:43:18;;;;;;;;;;;;;;;21.75;nan;95636.38;2089607;28;1414;-64
2022/05/12 01:44:20;;;;;;;;;;;;;;;21.75;nan;95639.06;2090964;28;1028;-64
2022/05/12 01:45:22;;;;;;;;;;;;;;;21.74;nan;95640.06;2090965;28;1084;-64
2022/05/12 01:46:23;;;;;;;;;;;;;;;21.72;nan;95636.78;2090908;28;1116;-63
2022/05/12 01:47:25;;;;;;;;;;;;;;;21.72;nan;95639.47;2085356;28;1569;-61
2022/05/12 01:48:27;;;;;;;;;;;;;;;21.70;nan;95637.00;2093484;28;1249;-62
2022/05/12 01:49:28;;;;;;;;;;;;;;;21.71;nan;95638.63;2098737;28;1090;-63
2022/05/12 01:50:30;;;;;;;;;;;;;;;21.70;nan;95644.19;2090891;28;1465;-62
2022/05/12 01:51:32;;;;;;;;;;;;;;;21.68;nan;95636.34;2090115;28;1468;-62
2022/05/12 01:52:34;;;;;;;;;;;;;;;21.67;nan;95635.53;2081496;28;1430;-62
2022/05/12 01:53:36;;;;;;;;;;;;;;;21.68;nan;95636.34;2091024;28;799;-63
2022/05/12 01:54:37;;;;;;;;;;;;;;;21.67;nan;95634.72;2088713;28;1384;-62
2022/05/12 01:55:39;;;;;;;;;;;;;;;21.68;nan;95642.56;2089639;28;1471;-62
2022/05/12 01:56:41;;;;;;;;;;;;;;;21.67;nan;95638.22;2090861;28;1084;-61
2022/05/12 01:57:45;;;;;;;;;;;;;;;21.66;nan;95639.25;2085312;28;1692;-62
2022/05/12 01:58:46;;;;;;;;;;;;;;;21.64;nan;95638.63;2078815;28;1501;-61
2022/05/12 01:59:48;;;;;;;;;;;;;;;21.66;nan;95641.94;2077955;28;1995;-61
2022/05/12 02:00:50;;;;;;;;;;;;;;;21.66;nan;95638.44;2081925;28;1479;-61
2022/05/12 02:01:52;;;;;;;;;;;;;;;21.70;nan;95644.19;2082464;28;1645;-62
2022/05/12 02:02:56;;;;;;;;;;;;;;;21.68;nan;95647.91;2086754;28;1697;-62
2022/05/12 02:03:58;;;;;;;;;;;;;;;21.65;nan;95642.97;2082586;28;1478;-63
2022/05/12 02:04:59;;;;;;;;;;;;;;;21.66;nan;95639.25;2082525;28;933;-63
2022/05/12 02:06:01;;;;;;;;;;;;;;;21.65;nan;95637.63;2082675;28;1044;-63
2022/05/12 02:07:03;;;;;;;;;;;;;;;21.64;nan;95635.94;2082694;28;1120;-62
2022/05/12 02:08:06;;;;;;;;;;;;;;;21.65;nan;95647.47;2082786;28;1028;-63
2022/05/12 02:09:08;;;;;;;;;;;;;;;21.64;nan;95643.97;2082632;28;1112;-62
2022/05/12 02:10:11;;;;;;;;;;;;;;;21.64;nan;95646.66;2077713;28;1583;-63
2022/05/12 02:11:13;;;;;;;;;;;;;;;21.64;nan;95635.94;2077264;28;1679;-63
2022/05/12 02:12:14;;;;;;;;;;;;;;;21.64;nan;95641.28;2081881;28;1310;-63
2022/05/12 02:13:18;;;;;;;;;;;;;;;21.64;nan;95643.16;2081689;28;1643;-63
2022/05/12 02:14:19;;;;;;;;;;;;;;;21.65;nan;95650.13;2082389;28;1298;-63
2022/05/12 02:15:21;;;;;;;;;;;;;;;21.63;nan;95638.84;2082560;28;1099;-63
2022/05/12 02:16:25;;;;;;;;;;;;;;;21.62;nan;95654.03;2082445;28;986;-63
2022/05/12 02:17:26;;;;;;;;;;;;;;;21.62;nan;95654.03;2082471;28;1139;-62
2022/05/12 02:18:29;;;;;;;;;;;;;;;21.62;nan;95651.38;2082332;28;917;-63
2022/05/12 02:19:31;;;;;;;;;;;;;;;21.61;nan;95651.59;2082509;28;1079;-63
2022/05/12 02:20:32;;;;;;;;;;;;;;;21.61;nan;95647.06;2082580;28;1906;-62
2022/05/12 02:21:35;;;;;;;;;;;;;;;21.61;nan;95655.06;2078000;28;1692;-62
2022/05/12 02:22:36;;;;;;;;;;;;;;;21.60;nan;95653.44;2075772;28;1863;-62
2022/05/12 02:23:38;;;;;;;;;;;;;;;21.60;nan;95653.44;2074565;28;1478;-64
2022/05/12 02:24:40;;;;;;;;;;;;;;;21.60;nan;95653.44;2090432;28;1690;-64
2022/05/12 02:25:42;;;;;;;;;;;;;;;21.60;nan;95655.31;2083930;28;1739;-64
2022/05/12 02:26:44;;;;;;;;;;;;;;;21.59;nan;95654.44;2089843;28;1027;-63
2022/05/12 02:27:46;;;;;;;;;;;;;;;21.59;nan;95658.97;2090652;28;1029;-65
2022/05/12 02:28:48;;;;;;;;;;;;;;;21.58;nan;95654.66;2090969;28;1016;-62
2022/05/12 02:29:50;;;;;;;;;;;;;;;21.58;nan;95660.00;2090778;28;1095;-63
2022/05/12 02:30:51;;;;;;;;;;;;;;;21.57;nan;95650.31;2090839;28;1040;-63
2022/05/12 02:31:53;;;;;;;;;;;;;;;21.56;nan;95654.84;2090743;28;1034;-64
2022/05/12 02:32:55;;;;;;;;;;;;;;;21.58;nan;95655.47;2079583;28;1650;-63
2022/05/12 02:33:56;;;;;;;;;;;;;;;21.59;nan;95658.97;2077734;28;1241;-63
2022/05/12 02:34:58;;;;;;;;;;;;;;;21.59;nan;95656.31;2081497;28;1280;-63
2022/05/12 02:36:02;;;;;;;;;;;;;;;21.60;nan;95663.31;2082602;28;806;-63
2022/05/12 02:37:05;;;;;;;;;;;;;;;21.59;nan;95656.31;2082235;28;1068;-64
2022/05/12 02:38:07;;;;;;;;;;;;;;;21.58;nan;95663.50;2082350;28;1080;-63
2022/05/12 02:39:08;;;;;;;;;;;;;;;21.58;nan;95658.16;2088598;28;1529;-62
2022/05/12 02:40:12;;;;;;;;;;;;;;;21.58;nan;95655.47;2089975;28;1902;-61
2022/05/12 02:41:13;;;;;;;;;;;;;;;21.61;nan;95660.44;2090664;28;1060;-63
2022/05/12 02:42:15;;;;;;;;;;;;;;;21.63;nan;95657.56;2090213;28;1002;-60
2022/05/12 02:43:26;;;;;;;;;;;;;;;21.61;nan;95660.44;2085914;28;1632;-63
2022/05/12 02:44:27;;;;;;;;;;;;;;;21.60;nan;95661.47;2085976;28;1387;-64
2022/05/12 02:45:29;;;;;;;;;;;;;;;21.59;nan;95659.78;2085469;28;1061;-63
2022/05/12 02:46:30;;;;;;;;;;;;;;;21.59;nan;95654.44;2090668;28;1008;-63
2022/05/12 02:47:32;;;;;;;;;;;;;;;21.59;nan;95659.78;2090218;28;1032;-61
2022/05/12 02:48:39;;;;;;;;;;;;;;;21.59;nan;95670.50;2090329;28;1225;-62
2022/05/12 02:49:41;;;;;;;;;;;;;;;21.59;nan;95661.66;2090669;28;1012;-61
2022/05/12 02:50:42;;;;;;;;;;;;;;;21.59;nan;95667.81;2090496;28;1550;-61
2022/05/12 02:51:44;;;;;;;;;;;;;;;21.58;nan;95666.19;2088609;28;1443;-63
2022/05/12 02:52:46;;;;;;;;;;;;;;;21.59;nan;95664.31;2086332;28;1634;-61
2022/05/12 02:53:47;;;;;;;;;;;;;;;21.58;nan;95660.84;2080648;28;1546;-61
2022/05/12 02:54:49;;;;;;;;;;;;;;;21.58;nan;95663.50;2080201;28;1690;-61
2022/05/12 02:55:51;;;;;;;;;;;;;;;21.58;nan;95665.38;2077210;28;1698;-61
2022/05/12 02:56:55;;;;;;;;;;;;;;;21.57;nan;95663.69;2077221;28;1327;-61
2022/05/12 02:57:57;;;;;;;;;;;;;;;21.57;nan;95666.38;2081923;28;1611;-60
2022/05/12 02:58:58;;;;;;;;;;;;;;;21.58;nan;95663.50;2081907;28;1276;-61
2022/05/12 03:00:01;;;;;;;;;;;;;;;21.59;nan;95664.31;2082078;28;1601;-62
2022/05/12 03:01:05;;;;;;;;;;;;;;;21.57;nan;95663.69;2081722;28;1978;-61
2022/05/12 03:02:06;;;;;;;;;;;;;;;21.58;nan;95665.38;2082475;28;1111;-70
2022/05/12 03:03:08;;;;;;;;;;;;;;;21.05;nan;95663.28;2080925;28;1649;-63
2022/05/12 03:04:10;;;;;;;;;;;;;;;20.14;nan;95667.81;2088469;28;1495;-67
2022/05/12 03:05:12;;;;;;;;;;;;;;;19.71;nan;95665.16;2085501;28;1448;-58
2022/05/12 03:06:14;;;;;;;;;;;;;;;19.08;nan;95671.00;2084608;28;1535;-59
2022/05/12 03:07:15;;;;;;;;;;;;;;;18.69;nan;95666.81;2085701;28;1521;-58
2022/05/12 03:08:17;;;;;;;;;;;;;;;18.51;nan;95669.81;2084692;28;1535;-58
2022/05/12 03:09:19;;;;;;;;;;;;;;;18.36;nan;95670.81;2090259;28;1155;-60
2022/05/12 03:10:23;;;;;;;;;;;;;;;17.99;nan;95673.31;2089031;28;1639;-59
2022/05/12 03:11:25;;;;;;;;;;;;;;;17.84;nan;95667.94;2078164;28;1640;-59
2022/05/12 03:12:26;;;;;;;;;;;;;;;17.72;nan;95673.81;2082110;28;1252;-60
2022/05/12 03:13:28;;;;;;;;;;;;;;;17.79;nan;95669.47;2082780;28;1460;-59
2022/05/12 03:14:30;;;;;;;;;;;;;;;17.73;nan;95664.84;2090300;28;1021;-59
2022/05/12 03:15:32;;;;;;;;;;;;;;;17.73;nan;95675.47;2090566;28;1029;-59
2022/05/12 03:16:33;;;;;;;;;;;;;;;17.77;nan;95677.63;2090145;28;842;-58
2022/05/12 03:17:35;;;;;;;;;;;;;;;17.82;nan;95675.25;2087857;28;1639;-59
2022/05/12 03:18:37;;;;;;;;;;;;;;;17.75;nan;95673.47;2069173;28;1428;-59
2022/05/12 03:19:39;;;;;;;;;;;;;;;17.59;nan;95672.56;2073503;28;1443;-57
2022/05/12 03:20:40;;;;;;;;;;;;;;;17.52;nan;95679.59;2085961;28;1910;-58
2022/05/12 03:21:42;;;;;;;;;;;;;;;17.53;nan;95677.78;2082128;28;1023;-58
2022/05/12 03:22:44;;;;;;;;;;;;;;;17.55;nan;95684.53;2081977;28;1104;-59
2022/05/12 03:23:46;;;;;;;;;;;;;;;17.57;nan;95679.06;2080465;28;1471;-59
2022/05/12 03:24:48;;;;;;;;;;;;;;;17.42;nan;95686.97;2087283;28;1650;-59
2022/05/12 03:25:51;;;;;;;;;;;;;;;17.24;nan;95681.91;2087725;28;1503;-59
2022/05/12 03:26:52;;;;;;;;;;;;;;;17.28;nan;95679.75;2089956;28;1103;-59
2022/05/12 03:27:54;;;;;;;;;;;;;;;17.39;nan;95682.00;2087636;28;1532;-59
2022/05/12 03:28:56;;;;;;;;;;;;;;;17.38;nan;95693.63;2081502;28;1612;-59
2022/05/12 03:29:58;;;;;;;;;;;;;;;17.38;nan;95688.31;2076944;28;1485;-60
2022/05/12 03:31:00;;;;;;;;;;;;;;;17.23;nan;95692.72;2076735;28;1637;-60
2022/05/12 03:32:03;;;;;;;;;;;;;;;17.09;nan;95686.31;2073333;28;1036;-60
2022/05/12 03:33:07;;;;;;;;;;;;;;;17.26;nan;95689.72;2078492;28;1499;-59
2022/05/12 03:34:08;;;;;;;;;;;;;;;17.41;nan;95695.91;2085353;28;1487;-58
2022/05/12 03:35:11;;;;;;;;;;;;;;;17.37;nan;95694.63;2090202;28;788;-60
2022/05/12 03:36:15;;;;;;;;;;;;;;;17.24;nan;95691.69;2083935;28;1452;-57
2022/05/12 03:37:17;;;;;;;;;;;;;;;17.17;nan;95689.75;2083659;28;1515;-59
2022/05/12 03:38:19;;;;;;;;;;;;;;;17.11;nan;95694.94;2081827;28;1022;-57
2022/05/12 03:39:21;;;;;;;;;;;;;;;17.39;nan;95690.81;2081482;28;1140;-59
2022/05/12 03:40:23;;;;;;;;;;;;;;;18.24;nan;95704.97;2081848;28;1655;-62
2022/05/12 03:41:25;;;;;;;;;;;;;;;17.99;nan;95699.88;2077056;28;1965;-61
2022/05/12 03:42:26;;;;;;;;;;;;;;;18.00;nan;95703.38;2077296;28;1360;-61
2022/05/12 03:44:49;;;;;;;;;;;;;;;18.02;nan;95706.69;2081940;28;1183;-63
2022/05/12 03:45:51;;;;;;;;;;;;;;;18.02;nan;95706.69;2082035;28;1527;-62
2022/05/12 03:46:53;;;;;;;;;;;;;;;17.83;nan;95713.28;2089486;28;1304;-62
2022/05/12 03:47:55;;;;;;;;;;;;;;;17.74;nan;95707.22;2084211;28;1653;-67
2022/05/12 03:48:59;;;;;;;;;;;;;;;17.65;nan;95706.41;2085302;28;1454;-68
2022/05/12 03:50:03;;;;;;;;;;;;;;;17.61;nan;95707.78;2090133;28;1029;-61
2022/05/12 03:51:05;;;;;;;;;;;;;;;17.42;nan;95711.69;2088363;28;1598;-64
2022/05/12 03:52:08;;;;;;;;;;;;;;;17.26;nan;95709.13;2090182;28;1077;-62
2022/05/12 03:53:10;;;;;;;;;;;;;;;17.37;nan;95713.22;2076493;28;1582;-62
2022/05/12 03:54:11;;;;;;;;;;;;;;;17.28;nan;95708.97;2078342;28;1424;-60
2022/05/12 03:55:13;;;;;;;;;;;;;;;17.35;nan;95715.22;2077776;28;1847;-60
2022/05/12 03:56:15;;;;;;;;;;;;;;;17.38;nan;95720.19;2079223;28;1685;-62
2022/05/12 03:57:17;;;;;;;;;;;;;;;17.22;nan;95712.31;2079367;28;1619;-61
2022/05/12 03:58:19;;;;;;;;;;;;;;;16.96;nan;95713.41;2073169;28;1092;-62
2022/05/12 03:59:20;;;;;;;;;;;;;;;16.98;nan;95711.41;2079808;28;2162;-61
2022/05/12 04:00:24;;;;;;;;;;;;;;;17.04;nan;95720.50;2079689;28;1245;-60
2022/05/12 04:01:25;;;;;;;;;;;;;;;16.93;nan;95721.69;2084406;28;1906;-60
2022/05/12 04:02:27;;;;;;;;;;;;;;;17.09;nan;95721.66;2087952;28;1345;-63
2022/05/12 04:03:29;;;;;;;;;;;;;;;17.14;nan;95723.78;2079883;28;1472;-66
2022/05/12 04:04:30;;;;;;;;;;;;;;;17.08;nan;95708.56;2070087;28;1205;-63
2022/05/12 04:05:32;;;;;;;;;;;;;;;17.10;nan;95725.97;2079048;28;1703;-62
2022/05/12 04:06:34;;;;;;;;;;;;;;;17.05;nan;95722.19;2086458;28;1477;-65
2022/05/12 04:07:40;;;;;;;;;;;;;;;17.02;nan;95726.00;2084819;28;1491;-64
2022/05/12 04:08:42;;;;;;;;;;;;;;;17.01;nan;95723.50;2093714;28;1566;-65
2022/05/12 04:09:43;;;;;;;;;;;;;;;16.96;nan;95722.22;2089896;28;1666;-65
2022/05/12 04:10:45;;;;;;;;;;;;;;;17.13;nan;95720.31;2081761;28;1638;-66
2022/05/12 04:11:47;;;;;;;;;;;;;;;17.18;nan;95725.09;2079307;28;1455;-61
2022/05/12 04:12:49;;;;;;;;;;;;;;;17.07;nan;95721.00;2079865;28;1225;-60
2022/05/12 04:13:50;;;;;;;;;;;;;;;17.14;nan;95724.63;2079585;28;1191;-62
2022/05/12 04:14:52;;;;;;;;;;;;;;;17.20;nan;95718.63;2076835;28;1120;-61
2022/05/12 04:15:54;;;;;;;;;;;;;;;17.21;nan;95724.75;2071251;28;1274;-62
2022/05/12 04:16:55;;;;;;;;;;;;;;;17.31;nan;95720.06;2083853;28;1440;-62
2022/05/12 04:17:59;;;;;;;;;;;;;;;17.20;nan;95723.91;2084722;28;1451;-62
2022/05/12 04:19:03;;;;;;;;;;;;;;;16.93;nan;95724.34;2074257;28;1446;-62
2022/05/12 04:20:06;;;;;;;;;;;;;;;16.21;nan;95721.66;2083040;28;1656;-63
2022/05/12 04:21:08;;;;;;;;;;;;;;;16.23;nan;95724.97;2084159;28;1902;-61
2022/05/12 04:22:09;;;;;;;;;;;;;;;16.48;nan;95728.44;2089620;28;1016;-62
2022/05/12 04:23:11;;;;;;;;;;;;;;;16.64;nan;95724.91;2086249;28;1687;-61
2022/05/12 04:24:12;;;;;;;;;;;;;;;16.60;nan;95719.13;2084039;28;1660;-62
2022/05/12 04:25:14;;;;;;;;;;;;;;;16.57;nan;95732.72;2081304;28;1101;-62
2022/05/12 04:26:16;;;;;;;;;;;;;;;16.56;nan;95727.56;2079615;28;1021;-61
2022/05/12 04:27:17;;;;;;;;;;;;;;;16.55;nan;95724.09;2074315;28;1136;-62
2022/05/12 04:28:20;;;;;;;;;;;;;;;16.59;nan;95721.94;2080998;28;1069;-62
2022/05/12 04:29:21;;;;;;;;;;;;;;;16.57;nan;95726.59;2081681;28;1097;-61
2022/05/12 04:30:24;;;;;;;;;;;;;;;16.59;nan;95728.09;2081687;28;1105;-62
2022/05/12 04:31:26;;;;;;;;;;;;;;;16.56;nan;95723.13;2081370;28;1032;-62
2022/05/12 04:32:27;;;;;;;;;;;;;;;16.61;nan;95723.41;2081881;28;825;-62
2022/05/12 04:35:13;;;;;;;;;;;;;;;16.61;nan;95720.78;2080530;28;1331;-61
2022/05/12 04:36:15;;;;;;;;;;;;;;;16.56;nan;95723.13;2081747;28;1660;-62
2022/05/12 04:37:17;;;;;;;;;;;;;;;16.58;nan;95717.63;2081554;28;1798;-63
2022/05/12 04:38:18;;;;;;;;;;;;;;;16.57;nan;95727.44;2075848;28;1201;-63
2022/05/12 04:39:20;;;;;;;;;;;;;;;16.65;nan;95719.44;2078765;28;1021;-63
2022/05/12 04:40:23;;;;;;;;;;;;;;;16.69;nan;95726.06;2081733;28;1141;-63
2022/05/12 04:41:25;;;;;;;;;;;;;;;16.74;nan;95729.03;2081642;28;1973;-63
2022/05/12 04:42:27;;;;;;;;;;;;;;;16.70;nan;95730.38;2081003;28;967;-63
2022/05/12 04:43:29;;;;;;;;;;;;;;;16.74;nan;95731.69;2081215;28;1280;-63
2022/05/12 04:44:31;;;;;;;;;;;;;;;16.79;nan;95730.38;2080808;28;791;-63
2022/05/12 04:45:32;;;;;;;;;;;;;;;16.76;nan;95734.19;2080973;28;1160;-61
2022/05/12 04:46:35;;;;;;;;;;;;;;;16.77;nan;95734.00;2080456;28;1020;-62
2022/05/12 04:47:38;;;;;;;;;;;;;;;16.81;nan;95731.84;2080775;28;1020;-61
2022/05/12 04:48:39;;;;;;;;;;;;;;;16.87;nan;95733.00;2080937;28;1188;-63
2022/05/12 04:49:41;;;;;;;;;;;;;;;16.88;nan;95734.69;2074387;28;1285;-62
2022/05/12 04:50:42;;;;;;;;;;;;;;;16.87;nan;95739.16;2078276;28;1152;-63
2022/05/12 04:51:44;;;;;;;;;;;;;;;16.88;nan;95732.03;2080345;28;1076;-62
2022/05/12 04:52:47;;;;;;;;;;;;;;;16.91;nan;95735.16;2080992;28;1025;-62
2022/05/12 04:53:48;;;;;;;;;;;;;;;16.90;nan;95743.28;2080534;28;957;-62
2022/05/12 04:54:50;;;;;;;;;;;;;;;16.96;nan;95732.00;2080917;28;1005;-61
2022/05/12 04:55:52;;;;;;;;;;;;;;;16.95;nan;95738.28;2080905;28;1306;-62
2022/05/12 04:56:53;;;;;;;;;;;;;;;17.00;nan;95737.78;2080829;28;1068;-62
2022/05/12 04:57:56;;;;;;;;;;;;;;;16.95;nan;95736.47;2081370;28;1024;-62
2022/05/12 04:58:58;;;;;;;;;;;;;;;16.90;nan;95737.97;2081816;28;962;-62
2022/05/12 05:00:00;;;;;;;;;;;;;;;16.95;nan;95732.97;2081635;28;1102;-63
2022/05/12 05:01:01;;;;;;;;;;;;;;;17.01;nan;95737.59;2074584;28;1191;-59
2022/05/12 05:02:03;;;;;;;;;;;;;;;17.01;nan;95747.41;2079593;28;1930;-62
2022/05/12 05:03:05;;;;;;;;;;;;;;;16.90;nan;95737.97;2081769;28;1013;-63
2022/05/12 05:04:07;;;;;;;;;;;;;;;16.93;nan;95749.09;2081866;28;1025;-62
2022/05/12 05:05:09;;;;;;;;;;;;;;;16.96;nan;95738.13;2081665;28;1710;-63
2022/05/12 05:06:11;;;;;;;;;;;;;;;16.95;nan;95747.06;2081605;28;1140;-62
2022/05/12 05:07:13;;;;;;;;;;;;;;;16.84;nan;95751.94;2083498;28;1009;-62
2022/05/12 05:08:16;;;;;;;;;;;;;;;16.82;nan;95740.69;2082641;28;1025;-62
2022/05/12 05:09:18;;;;;;;;;;;;;;;16.79;nan;95751.59;2083357;28;1097;-63
2022/05/12 05:10:19;;;;;;;;;;;;;;;16.74;nan;95747.63;2082980;28;1029;-61
2022/05/12 05:11:21;;;;;;;;;;;;;;;16.72;nan;95751.44;2082564;28;1218;-62
2022/05/12 05:12:23;;;;;;;;;;;;;;;16.80;nan;95743.50;2075665;28;1320;-62
2022/05/12 05:13:24;;;;;;;;;;;;;;;16.80;nan;95746.13;2081253;28;1209;-62
2022/05/12 05:14:26;;;;;;;;;;;;;;;16.88;nan;95746.13;2083090;28;1080;-62
2022/05/12 05:15:28;;;;;;;;;;;;;;;16.90;nan;95743.28;2082764;28;2160;-62
2022/05/12 05:16:29;;;;;;;;;;;;;;;16.89;nan;95747.78;2083112;28;1037;-63
2022/05/12 05:17:31;;;;;;;;;;;;;;;16.84;nan;95751.94;2083180;28;1114;-62
2022/05/12 05:18:36;;;;;;;;;;;;;;;16.89;nan;95753.06;2082980;28;1120;-63
2022/05/12 05:19:38;;;;;;;;;;;;;;;16.83;nan;95744.97;2083271;28;1009;-62
2022/05/12 05:20:41;;;;;;;;;;;;;;;16.79;nan;95748.94;2083036;28;1089;-61
2022/05/12 05:21:43;;;;;;;;;;;;;;;16.84;nan;95754.59;2083062;28;1979;-63
2022/05/12 05:22:45;;;;;;;;;;;;;;;16.94;nan;95749.91;2082864;28;1068;-62
2022/05/12 05:23:47;;;;;;;;;;;;;;;16.99;nan;95750.25;2075519;28;1430;-62
2022/05/12 05:24:48;;;;;;;;;;;;;;;17.11;nan;95751.53;2081635;28;1120;-62
2022/05/12 05:25:51;;;;;;;;;;;;;;;17.14;nan;95748.53;2083021;28;994;-60
2022/05/12 05:26:52;;;;;;;;;;;;;;;17.23;nan;95751.16;2083005;28;1016;-62
2022/05/12 05:27:55;;;;;;;;;;;;;;;17.31;nan;95751.13;2082860;28;1085;-63
2022/05/12 05:28:57;;;;;;;;;;;;;;;17.43;nan;95753.19;2083091;28;1017;-62
2022/05/12 05:29:58;;;;;;;;;;;;;;;17.51;nan;95752.34;2083141;28;912;-62
2022/05/12 05:31:00;;;;;;;;;;;;;;;17.60;nan;95751.28;2082587;28;1075;-62
2022/05/12 05:32:01;;;;;;;;;;;;;;;17.63;nan;95750.09;2083061;28;1281;-63
2022/05/12 05:33:21;;;;;;;;;;;;;;;17.66;nan;95752.41;2083195;28;751;-62
2022/05/12 05:34:23;;;;;;;;;;;;;;;17.64;nan;95757.91;2082124;28;1296;-62
2022/05/12 05:35:25;;;;;;;;;;;;;;;17.62;nan;95746.63;2076084;28;1205;-62
2022/05/12 05:36:26;;;;;;;;;;;;;;;17.71;nan;95759.88;2082699;28;1409;-62
2022/05/12 05:37:28;;;;;;;;;;;;;;;17.80;nan;95758.84;2083199;28;1092;-62
2022/05/12 05:38:29;;;;;;;;;;;;;;;17.92;nan;95757.44;2082484;28;1091;-62
2022/05/12 05:39:31;;;;;;;;;;;;;;;17.97;nan;95751.59;2083319;28;1016;-62
2022/05/12 05:40:33;;;;;;;;;;;;;;;17.92;nan;95743.31;2082958;28;1119;-62
2022/05/12 05:41:37;;;;;;;;;;;;;;;17.95;nan;95758.91;2082954;28;1117;-62